Time;durP1;ratioP1;P1;durP2;ratioP2;P2;SDS_P1;SDS_P2;PMS_P1;PMS_P2;Temp;Humidity;BMP_temperature;BMP_pressure;BME280_temperature;BME280_humidity;BME280_pressure;Samples;Min_cycle;Max_cycle;Signal;HPM_P1;HPM_P2
2023/03/15 00:01:07;;;;;;;2.47;0.80;;;5.60;99.90;;;5.40;nan;100359.69;4993463;28;20227;-67
2023/03/15 00:03:38;;;;;;;0.20;0.20;;;5.50;99.90;;;5.36;nan;100365.13;4995512;28;20207;-67
2023/03/15 00:06:06;;;;;;;0.20;0.20;;;5.40;99.90;;;5.28;nan;100368.09;4988014;28;20243;-66
2023/03/15 00:08:33;;;;;;;0.30;0.30;;;5.40;99.90;;;5.13;nan;100373.28;4994556;28;20211;-68
2023/03/15 00:11:00;;;;;;;0.40;0.30;;;5.20;99.90;;;4.98;nan;100377.53;4986967;28;20228;-67
2023/03/15 00:13:28;;;;;;;0.40;0.38;;;5.10;99.90;;;4.89;nan;100395.25;4974965;28;20208;-67
2023/03/15 00:16:02;;;;;;;1.00;0.52;;;5.00;99.90;;;4.89;nan;100397.84;4973291;28;20208;-67
2023/03/15 00:18:29;;;;;;;0.47;0.45;;;4.90;99.90;;;4.90;nan;100402.13;4992946;28;20212;-66
2023/03/15 00:20:56;;;;;;;0.45;0.45;;;5.00;99.90;;;4.89;nan;100403.84;4993517;28;20277;-67
2023/03/15 00:23:24;;;;;;;0.30;0.30;;;5.00;99.90;;;4.83;nan;100403.34;4992186;28;20881;-67
2023/03/15 00:25:52;;;;;;;0.75;0.73;;;4.90;99.90;;;4.80;nan;100406.06;4993454;28;20316;-67
2023/03/15 00:28:19;;;;;;;1.58;0.30;;;4.90;99.90;;;4.80;nan;100406.06;4985349;28;20453;-69
2023/03/15 00:30:46;;;;;;;0.20;0.20;;;4.90;99.90;;;4.82;nan;100419.75;4991684;28;20235;-68
2023/03/15 00:33:15;;;;;;;0.52;0.50;;;4.90;99.90;;;4.79;nan;100423.34;4992278;28;20210;-69
2023/03/15 00:35:44;;;;;;;0.85;0.60;;;4.90;99.90;;;4.81;nan;100428.44;4994283;28;20215;-67
2023/03/15 00:38:13;;;;;;;2.55;0.77;;;4.90;99.90;;;4.77;nan;100426.91;4989986;28;20802;-69
2023/03/15 00:40:40;;;;;;;1.15;0.60;;;4.90;99.90;;;4.79;nan;100427.69;4992123;28;20709;-67
2023/03/15 00:43:07;;;;;;;1.25;0.50;;;4.90;99.90;;;4.79;nan;100438.03;4993091;28;20673;-67
2023/03/15 00:45:34;;;;;;;0.47;0.47;;;4.90;99.90;;;4.80;nan;100444.84;4993454;28;20766;-67
2023/03/15 00:48:01;;;;;;;0.30;0.30;;;4.90;99.90;;;4.76;nan;100449.34;4992808;28;20584;-67
2023/03/15 00:50:28;;;;;;;1.38;0.50;;;4.90;99.90;;;4.76;nan;100445.91;4992118;28;20223;-68
2023/03/15 00:52:55;;;;;;;0.30;0.30;;;4.90;99.90;;;4.73;nan;100439.16;4992767;28;20211;-66
2023/03/15 00:55:22;;;;;;;1.15;0.50;;;4.80;99.90;;;4.74;nan;100448.59;4992649;28;20212;-70
2023/03/15 00:57:49;;;;;;;0.40;0.40;;;4.80;99.90;;;4.71;nan;100451.31;4993429;28;20685;-67
2023/03/15 01:00:19;;;;;;;0.93;0.60;;;4.80;99.90;;;4.71;nan;100461.66;5021624;23;20242;-66
2023/03/15 01:02:46;;;;;;;0.30;0.30;;;4.80;99.90;;;4.66;nan;100466.25;4972262;28;20200;-66
2023/03/15 01:05:13;;;;;;;0.50;0.50;;;4.80;99.90;;;4.61;nan;100463.88;4972660;28;20706;-64
2023/03/15 01:07:41;;;;;;;0.40;0.30;;;4.70;99.90;;;4.58;nan;100461.44;4988047;28;20261;-67
2023/03/15 01:10:09;;;;;;;1.25;0.70;;;4.70;99.90;;;4.54;nan;100462.50;4993032;28;20226;-64
2023/03/15 01:12:36;;;;;;;0.50;0.50;;;4.70;99.90;;;4.58;nan;100474.34;4983438;28;20696;-64
2023/03/15 01:15:07;;;;;;;0.73;0.60;;;4.70;99.90;;;4.59;nan;100475.19;4993391;28;20211;-64
2023/03/15 01:17:34;;;;;;;0.40;0.40;;;4.70;99.90;;;4.57;nan;100467.53;4992124;28;20215;-66
2023/03/15 01:20:01;;;;;;;0.60;0.60;;;4.70;99.90;;;4.55;nan;100469.34;4980601;28;20301;-66
2023/03/15 01:22:27;;;;;;;0.65;0.65;;;4.70;99.90;;;4.58;nan;100476.09;4988180;28;20277;-66
2023/03/15 01:24:54;;;;;;;0.50;0.50;;;4.70;99.90;;;4.58;nan;100469.19;4983055;28;20237;-67
2023/03/15 01:27:21;;;;;;;0.50;0.50;;;4.70;99.90;;;4.58;nan;100471.78;4993033;28;20218;-66
2023/03/15 01:29:48;;;;;;;0.55;0.50;;;4.80;99.90;;;4.58;nan;100476.94;4989464;28;20206;-67
2023/03/15 01:32:15;;;;;;;4.57;0.85;;;4.70;99.90;;;4.60;nan;100480.28;4973037;28;20192;-66
2023/03/15 01:34:42;;;;;;;0.70;0.70;;;4.80;99.90;;;4.54;nan;100480.59;4980359;28;20266;-66
2023/03/15 01:37:13;;;;;;;0.60;0.60;;;4.70;99.90;;;4.53;nan;100483.25;4990478;28;20214;-66
2023/03/15 01:39:41;;;;;;;1.25;0.60;;;4.70;99.90;;;4.54;nan;100480.59;4990391;28;20218;-66
2023/03/15 01:42:09;;;;;;;0.40;0.40;;;4.70;99.90;;;4.53;nan;100478.09;4973149;28;20271;-66
2023/03/15 01:45:01;;;;;;;1.25;0.57;;;4.70;99.90;;;4.48;nan;100477.47;4976401;28;20219;-67
2023/03/15 01:47:28;;;;;;;0.55;0.50;;;4.60;99.90;;;4.40;nan;100480.44;4969121;28;20211;-66
2023/03/15 01:50:02;;;;;;;0.75;0.60;;;4.60;99.90;;;4.35;nan;100476.41;4975274;28;20282;-68
2023/03/15 01:52:35;;;;;;;0.50;0.50;;;4.50;99.90;;;4.28;nan;100477.63;4971073;28;20661;-68
2023/03/15 01:55:14;;;;;;;0.30;0.30;;;4.40;99.90;;;4.26;nan;100490.59;4974807;28;20213;-67
2023/03/15 01:57:51;;;;;;;0.52;0.52;;;4.40;99.90;;;4.24;nan;100486.44;4991375;28;20222;-67
2023/03/15 02:00:19;;;;;;;0.90;0.55;;;4.40;99.90;;;4.19;nan;100491.81;4990876;28;20235;-65
2023/03/15 02:02:52;;;;;;;0.30;0.30;;;4.40;99.90;;;4.17;nan;100487.63;4973766;28;20285;-66
2023/03/15 02:05:24;;;;;;;0.40;0.40;;;4.30;99.90;;;4.08;nan;100486.31;4978646;28;20285;-66
2023/03/15 02:07:53;;;;;;;0.70;0.70;;;4.30;99.90;;;3.99;nan;100493.66;4972309;28;20204;-66
2023/03/15 02:10:34;;;;;;;0.45;0.45;;;4.20;99.90;;;3.92;nan;100488.78;4977129;28;20324;-64
2023/03/15 02:13:02;;;;;;;0.68;0.45;;;4.10;99.90;;;3.87;nan;100493.34;4979781;28;20210;-66
2023/03/15 02:15:30;;;;;;;0.50;0.50;;;4.10;99.90;;;3.78;nan;100491.19;4981214;28;20594;-66
2023/03/15 02:17:57;;;;;;;0.60;0.60;;;4.00;99.90;;;3.76;nan;100492.16;4990001;28;20215;-66
2023/03/15 02:21:01;;;;;;;2.00;0.88;;;3.90;99.90;;;3.78;nan;100500.66;4997450;28;20231;-68
2023/03/15 02:23:30;;;;;;;0.32;0.32;;;3.90;99.90;;;3.78;nan;100506.66;4972171;28;20215;-68
2023/03/15 02:26:15;;;;;;;0.73;0.65;;;3.90;99.90;;;3.76;nan;100505.06;4982231;28;20238;-66
2023/03/15 02:28:43;;;;;;;1.58;0.98;;;3.90;99.90;;;3.76;nan;100503.31;4989387;28;20195;-67
2023/03/15 02:31:10;;;;;;;0.60;0.60;;;3.90;99.90;;;3.76;nan;100513.63;4989706;28;20223;-67
2023/03/15 02:33:46;;;;;;;0.60;0.60;;;3.90;99.90;;;3.78;nan;100505.81;4989921;28;20237;-66
2023/03/15 02:36:17;;;;;;;0.80;0.80;;;4.00;99.90;;;3.78;nan;100508.41;4976110;28;20220;-66
2023/03/15 02:38:44;;;;;;;0.70;0.70;;;4.00;99.90;;;3.78;nan;100508.41;4973476;28;20678;-66
2023/03/15 02:41:14;;;;;;;0.60;0.60;;;4.00;99.90;;;3.81;nan;100513.44;4971285;28;20282;-66
2023/03/15 02:43:42;;;;;;;0.60;0.60;;;4.00;99.90;;;3.83;nan;100521.94;4976774;28;20675;-66
2023/03/15 02:46:09;;;;;;;0.30;0.30;;;4.00;99.90;;;3.81;nan;100527.16;4967827;28;20231;-67
2023/03/15 02:48:38;;;;;;;0.47;0.47;;;4.00;99.90;;;3.82;nan;100530.56;4966231;28;20197;-67
2023/03/15 02:51:05;;;;;;;2.35;0.50;;;4.00;99.90;;;3.84;nan;100536.50;4967653;28;20237;-66
2023/03/15 02:53:32;;;;;;;0.40;0.40;;;4.00;99.90;;;3.81;nan;100539.25;4974819;28;20691;-66
2023/03/15 02:55:59;;;;;;;1.00;0.90;;;4.00;99.90;;;3.77;nan;100540.25;4970944;28;20204;-66
2023/03/15 02:58:26;;;;;;;0.50;0.50;;;4.00;99.90;;;3.73;nan;100547.31;4970852;28;20678;-67
2023/03/15 03:00:53;;;;;;;0.40;0.40;;;3.90;99.90;;;3.71;nan;100543.13;4970963;28;20664;-66
2023/03/15 03:03:20;;;;;;;1.35;0.60;;;3.90;99.90;;;3.67;nan;100539.84;4971789;28;20274;-67
2023/03/15 03:05:47;;;;;;;0.40;0.40;;;3.90;99.90;;;3.65;nan;100540.81;4987321;28;20232;-67
2023/03/15 03:08:15;;;;;;;0.40;0.40;;;3.80;99.90;;;3.57;nan;100543.75;4970971;28;20241;-67
2023/03/15 03:10:42;;;;;;;1.02;0.52;;;3.70;99.90;;;3.57;nan;100548.91;4974391;28;20212;-66
2023/03/15 03:13:09;;;;;;;1.10;0.65;;;3.70;99.90;;;3.58;nan;100548.00;4972748;28;20661;-66
2023/03/15 03:15:36;;;;;;;0.40;0.40;;;3.80;99.90;;;3.58;nan;100547.16;4991778;28;20211;-66
2023/03/15 03:18:03;;;;;;;0.40;0.40;;;3.80;99.90;;;3.54;nan;100550.78;4985864;28;20737;-66
2023/03/15 03:20:30;;;;;;;0.70;0.70;;;3.70;99.90;;;3.56;nan;100561.88;4970774;28;20235;-68
2023/03/15 03:22:57;;;;;;;0.90;0.88;;;3.80;99.90;;;3.56;nan;100561.88;4979585;28;20563;-66
2023/03/15 03:25:26;;;;;;;2.33;1.00;;;3.80;99.90;;;3.55;nan;100565.38;4990294;28;20257;-66
2023/03/15 03:27:55;;;;;;;0.60;0.60;;;3.70;99.90;;;3.53;nan;100574.91;4983188;28;20205;-66
2023/03/15 03:30:23;;;;;;;0.50;0.50;;;3.70;99.90;;;3.56;nan;100572.19;4975295;28;20228;-66
2023/03/15 03:32:50;;;;;;;0.57;0.57;;;3.70;99.90;;;3.56;nan;100577.34;4974875;28;20589;-66
2023/03/15 03:35:17;;;;;;;0.57;0.57;;;3.80;99.90;;;3.49;nan;100563.06;4975411;28;20579;-67
2023/03/15 03:37:44;;;;;;;0.52;0.50;;;3.70;99.90;;;3.43;nan;100581.38;4982611;28;20211;-66
2023/03/15 03:40:12;;;;;;;2.40;0.70;;;3.60;99.90;;;3.43;nan;100576.22;4973814;28;20607;-65
2023/03/15 03:42:39;;;;;;;0.63;0.60;;;3.60;99.90;;;3.43;nan;100577.03;4981694;28;20204;-66
2023/03/15 03:45:07;;;;;;;0.70;0.70;;;3.60;99.90;;;3.43;nan;100571.88;4994929;28;20229;-66
2023/03/15 03:47:34;;;;;;;0.63;0.63;;;3.60;99.90;;;3.43;nan;100576.22;4980783;28;20208;-67
2023/03/15 03:50:01;;;;;;;0.47;0.47;;;3.60;99.90;;;3.40;nan;100576.34;4979243;28;20234;-65
2023/03/15 03:52:28;;;;;;;1.30;0.70;;;3.60;99.90;;;3.41;nan;100584.00;4994852;28;20213;-67
2023/03/15 03:54:54;;;;;;;1.30;1.20;;;3.60;99.90;;;3.43;nan;100583.97;4994601;28;20237;-66
2023/03/15 03:57:21;;;;;;;0.47;0.47;;;3.60;99.90;;;3.39;nan;100588.41;4993713;28;20204;-65
2023/03/15 03:59:48;;;;;;;0.47;0.47;;;3.60;99.90;;;3.35;nan;100593.75;4994621;28;20274;-65
2023/03/15 04:02:15;;;;;;;0.30;0.30;;;3.50;99.90;;;3.29;nan;100584.56;4987875;28;20211;-65
2023/03/15 04:04:42;;;;;;;0.45;0.40;;;3.50;99.90;;;3.23;nan;100589.97;4975037;28;20243;-66
2023/03/15 04:07:09;;;;;;;0.95;0.63;;;3.40;99.90;;;3.20;nan;100587.50;4974900;28;20674;-65
2023/03/15 04:09:36;;;;;;;0.30;0.30;;;3.40;99.90;;;3.17;nan;100591.06;4966505;28;20204;-66
2023/03/15 04:12:05;;;;;;;0.30;0.30;;;3.30;99.90;;;3.06;nan;100595.84;4974314;28;20208;-64
2023/03/15 04:14:32;;;;;;;0.30;0.30;;;3.20;99.90;;;3.01;nan;100590.03;4979672;28;20200;-64
2023/03/15 04:17:02;;;;;;;0.30;0.30;;;3.10;99.90;;;2.96;nan;100589.38;4969195;28;20428;-65
2023/03/15 04:19:30;;;;;;;0.30;0.30;;;3.10;99.90;;;2.97;nan;100591.06;4956321;28;20666;-65
2023/03/15 04:21:56;;;;;;;3.70;0.60;;;3.10;99.90;;;2.95;nan;100590.28;4974851;28;20207;-65
2023/03/15 04:24:23;;;;;;;1.63;1.00;;;3.10;99.90;;;2.94;nan;100593.75;4967441;28;20659;-65
2023/03/15 04:26:56;;;;;;;0.50;0.30;;;3.10;99.90;;;2.93;nan;100596.41;4955534;28;20220;-65
2023/03/15 04:29:23;;;;;;;0.52;0.52;;;3.10;99.90;;;2.93;nan;100596.41;4973334;28;20266;-64
2023/03/15 04:31:50;;;;;;;0.30;0.30;;;3.10;99.90;;;2.97;nan;100603.09;4970801;28;20598;-65
2023/03/15 04:34:17;;;;;;;0.43;0.43;;;3.10;99.90;;;2.97;nan;100603.94;4975055;28;20583;-65
2023/03/15 04:36:44;;;;;;;1.90;0.82;;;3.10;99.90;;;3.04;nan;100609.69;4985213;28;20212;-65
2023/03/15 04:39:11;;;;;;;0.50;0.50;;;3.20;99.90;;;3.07;nan;100615.56;4979277;28;20583;-66
2023/03/15 04:41:38;;;;;;;0.50;0.50;;;3.20;99.90;;;3.06;nan;100601.00;4973561;28;20601;-65
2023/03/15 04:44:05;;;;;;;0.68;0.68;;;3.30;99.90;;;3.04;nan;100605.38;4990139;28;20215;-65
2023/03/15 04:46:32;;;;;;;0.50;0.50;;;3.30;99.90;;;2.97;nan;100614.25;4992353;28;20238;-65
2023/03/15 04:49:00;;;;;;;1.85;0.82;;;3.20;99.90;;;2.97;nan;100616.84;4985876;28;20207;-65
2023/03/15 04:51:27;;;;;;;0.50;0.50;;;3.10;99.90;;;2.96;nan;100616.91;4975375;28;20285;-65
2023/03/15 04:53:54;;;;;;;0.55;0.55;;;3.10;99.90;;;2.92;nan;100603.28;4962580;28;20208;-65
2023/03/15 04:56:21;;;;;;;1.15;1.10;;;3.10;99.90;;;2.95;nan;100616.06;4973788;28;20294;-65
2023/03/15 04:58:48;;;;;;;0.65;0.65;;;3.20;99.90;;;2.98;nan;100613.34;4973100;28;20212;-62
2023/03/15 05:01:15;;;;;;;2.53;1.08;;;3.10;99.90;;;3.02;nan;100619.22;4978706;28;20234;-64
2023/03/15 05:03:42;;;;;;;3.08;0.80;;;3.20;99.90;;;3.08;nan;100618.97;4980229;28;20250;-64
2023/03/15 05:06:09;;;;;;;0.70;0.70;;;3.20;99.90;;;3.11;nan;100617.09;4976994;28;20277;-65
2023/03/15 05:08:36;;;;;;;0.57;0.57;;;3.30;99.90;;;3.15;nan;100628.13;4976918;28;20207;-64
2023/03/15 05:11:04;;;;;;;0.65;0.65;;;3.30;99.90;;;3.21;nan;100627.03;4972621;28;20232;-64
2023/03/15 05:13:31;;;;;;;0.82;0.68;;;3.40;99.90;;;3.24;nan;100616.59;4974183;28;20204;-67
2023/03/15 05:15:58;;;;;;;0.43;0.40;;;3.40;99.90;;;3.25;nan;100618.25;4973271;28;20204;-65
2023/03/15 05:18:25;;;;;;;0.68;0.68;;;3.40;99.90;;;3.26;nan;100617.38;4977300;28;20212;-65
2023/03/15 05:20:54;;;;;;;0.32;0.32;;;3.40;99.90;;;3.27;nan;100619.88;4972674;28;20737;-64
2023/03/15 05:23:23;;;;;;;1.05;0.52;;;3.40;99.90;;;3.27;nan;100621.63;4980261;28;20212;-65
2023/03/15 05:25:54;;;;;;;1.10;0.70;;;3.40;99.90;;;3.29;nan;100633.53;4972646;28;20224;-66
2023/03/15 05:28:23;;;;;;;1.85;1.00;;;3.40;99.90;;;3.33;nan;100631.66;4983685;28;20200;-65
2023/03/15 05:30:51;;;;;;;2.35;1.42;;;3.50;99.90;;;3.39;nan;100646.88;4993141;28;20238;-65
2023/03/15 05:33:19;;;;;;;1.20;1.10;;;3.50;99.90;;;3.46;nan;100644.00;4981221;28;20472;-65
2023/03/15 05:35:46;;;;;;;3.40;1.17;;;3.60;99.90;;;3.53;nan;100655.72;4974183;28;20242;-65
2023/03/15 05:38:14;;;;;;;2.22;1.38;;;3.70;99.90;;;3.58;nan;100650.34;4972442;28;20223;-65
2023/03/15 05:40:43;;;;;;;0.77;0.77;;;3.80;99.90;;;3.67;nan;100657.69;4972288;28;20740;-65
2023/03/15 05:43:10;;;;;;;1.70;1.60;;;3.90;99.90;;;3.70;nan;100652.41;4997436;28;20199;-65
2023/03/15 05:45:38;;;;;;;0.73;0.73;;;3.90;99.90;;;3.74;nan;100653.97;4992808;28;20230;-65
2023/03/15 05:48:05;;;;;;;1.13;1.00;;;3.90;99.90;;;3.73;nan;100654.84;4977156;28;20211;-65
2023/03/15 05:50:32;;;;;;;1.27;1.08;;;3.90;99.90;;;3.74;nan;100661.69;4971987;28;20231;-65
2023/03/15 05:52:59;;;;;;;1.00;1.00;;;3.90;99.90;;;3.81;nan;100655.38;4990092;28;20274;-64
2023/03/15 05:55:26;;;;;;;1.00;0.90;;;3.90;99.90;;;3.82;nan;100657.88;4972998;28;20215;-64
2023/03/15 05:57:53;;;;;;;4.20;1.20;;;4.00;99.90;;;3.91;nan;100662.66;4974747;28;20265;-65
2023/03/15 06:00:20;;;;;;;0.98;0.90;;;4.10;99.90;;;3.93;nan;100670.31;4971934;28;20244;-65
2023/03/15 06:02:47;;;;;;;1.10;1.10;;;4.10;99.90;;;3.95;nan;100668.50;4991746;28;20219;-66
2023/03/15 06:05:14;;;;;;;1.95;1.80;;;4.10;99.90;;;3.98;nan;100676.13;4991010;28;20215;-64
2023/03/15 06:07:41;;;;;;;1.90;1.60;;;4.10;99.90;;;4.03;nan;100679.31;4989749;28;20207;-65
2023/03/15 06:10:10;;;;;;;1.20;1.10;;;4.20;99.90;;;4.07;nan;100682.63;4972414;28;20220;-65
2023/03/15 06:12:36;;;;;;;1.00;1.00;;;4.20;99.90;;;4.07;nan;100680.84;4967775;28;20208;-65
2023/03/15 06:15:04;;;;;;;0.98;0.93;;;4.20;99.90;;;4.07;nan;100685.22;4971332;28;20258;-66
2023/03/15 06:17:31;;;;;;;2.20;1.75;;;4.20;99.90;;;4.04;nan;100687.91;4969496;28;20262;-65
2023/03/15 06:19:58;;;;;;;1.33;1.23;;;4.20;99.90;;;4.05;nan;100693.00;4972848;28;20710;-65
2023/03/15 06:22:26;;;;;;;1.73;1.63;;;4.30;99.90;;;4.07;nan;100700.69;4972362;28;20696;-64
2023/03/15 06:24:53;;;;;;;3.50;1.88;;;4.30;99.90;;;4.00;nan;100705.28;4973095;28;20208;-67
2023/03/15 06:27:20;;;;;;;2.10;2.00;;;4.20;99.90;;;4.00;nan;100702.72;4973268;28;20372;-65
2023/03/15 06:29:49;;;;;;;2.22;1.85;;;4.10;99.90;;;4.06;nan;100710.19;4972940;28;20637;-65
2023/03/15 06:32:16;;;;;;;6.55;2.05;;;4.20;99.90;;;4.09;nan;100706.63;4973096;28;20204;-65
2023/03/15 06:34:43;;;;;;;1.80;1.70;;;4.20;99.90;;;4.16;nan;100705.44;4967410;28;20694;-65
2023/03/15 06:37:12;;;;;;;1.60;1.50;;;4.30;99.90;;;4.23;nan;100705.13;4975473;28;20203;-64
2023/03/15 06:39:44;;;;;;;3.83;2.15;;;4.40;99.90;;;4.26;nan;100710.13;4973274;28;20207;-66
2023/03/15 06:42:12;;;;;;;4.88;2.10;;;4.50;99.90;;;4.32;nan;100702.09;4974782;28;20211;-65
2023/03/15 06:44:40;;;;;;;1.48;1.38;;;4.50;99.90;;;4.41;nan;100713.75;4988440;28;20634;-63
2023/03/15 06:47:08;;;;;;;1.50;1.40;;;4.60;99.90;;;4.43;nan;100720.53;4971762;28;20235;-64
2023/03/15 06:49:36;;;;;;;1.85;1.73;;;4.60;99.90;;;4.45;nan;100721.28;4966158;28;20205;-65
2023/03/15 06:52:04;;;;;;;3.60;1.85;;;4.60;99.90;;;4.47;nan;100724.66;4969388;28;20237;-64
2023/03/15 06:54:31;;;;;;;3.95;1.50;;;4.70;99.90;;;4.52;nan;100729.63;4974449;28;20661;-64
2023/03/15 06:56:58;;;;;;;3.83;1.77;;;4.60;99.90;;;4.55;nan;100732.91;4987181;28;20210;-65
2023/03/15 06:59:25;;;;;;;1.67;1.58;;;4.70;99.90;;;4.59;nan;100731.88;4972694;28;20238;-65
2023/03/15 07:01:52;;;;;;;2.25;1.60;;;4.80;99.90;;;4.61;nan;100742.13;5001961;23;20242;-65
2023/03/15 07:04:20;;;;;;;0.82;0.82;;;4.80;99.90;;;4.64;nan;100747.97;4980653;28;20196;-65
2023/03/15 07:06:47;;;;;;;2.08;1.20;;;4.80;99.90;;;4.70;nan;100752.06;4985575;28;20235;-65
2023/03/15 07:09:14;;;;;;;3.78;1.60;;;4.80;99.90;;;4.73;nan;100752.72;4985306;28;20200;-65
2023/03/15 07:11:41;;;;;;;0.55;0.55;;;4.90;99.90;;;4.76;nan;100748.31;4990100;28;20627;-66
2023/03/15 07:14:08;;;;;;;1.40;1.30;;;4.90;99.90;;;4.82;nan;100753.22;4991466;28;20210;-65
2023/03/15 07:16:35;;;;;;;5.97;2.30;;;5.00;99.90;;;4.78;nan;100764.59;4989929;28;20677;-65
2023/03/15 07:19:02;;;;;;;1.90;1.80;;;5.00;99.90;;;4.85;nan;100766.84;4991484;28;20487;-66
2023/03/15 07:21:29;;;;;;;1.90;1.80;;;5.00;99.90;;;4.91;nan;100761.41;4978774;28;20238;-65
2023/03/15 07:23:56;;;;;;;1.20;1.20;;;5.10;99.90;;;4.91;nan;100769.16;4986261;28;20200;-67
2023/03/15 07:26:23;;;;;;;0.77;0.65;;;5.10;99.90;;;4.88;nan;100769.28;4987709;28;20219;-66
2023/03/15 07:28:50;;;;;;;0.60;0.60;;;5.10;99.90;;;4.78;nan;100770.63;4970709;28;20697;-66
2023/03/15 07:31:17;;;;;;;0.60;0.60;;;5.00;99.90;;;4.71;nan;100764.88;4985939;28;20236;-65
2023/03/15 07:33:44;;;;;;;1.40;1.30;;;5.00;99.90;;;4.74;nan;100763.91;4971554;28;20219;-65
2023/03/15 07:36:11;;;;;;;1.00;0.90;;;4.90;99.90;;;4.80;nan;100767.97;4971829;28;20212;-65
2023/03/15 07:38:38;;;;;;;1.25;1.15;;;4.90;99.90;;;4.77;nan;100768.13;4982520;28;20277;-66
2023/03/15 07:41:08;;;;;;;2.10;1.60;;;4.90;99.90;;;4.78;nan;100780.97;4990419;28;20223;-66
2023/03/15 07:43:35;;;;;;;3.25;1.88;;;4.90;99.90;;;4.81;nan;100787.75;4990684;28;20214;-66
2023/03/15 07:46:02;;;;;;;1.67;1.58;;;5.00;99.90;;;4.85;nan;100781.53;4991221;28;20231;-66
2023/03/15 07:48:30;;;;;;;1.98;1.35;;;5.00;99.90;;;4.88;nan;100777.03;4989772;28;20227;-66
2023/03/15 07:50:57;;;;;;;2.42;1.40;;;5.00;99.90;;;4.94;nan;100770.75;4989612;28;20226;-66
2023/03/15 07:53:23;;;;;;;1.40;1.30;;;5.10;99.90;;;4.83;nan;100773.00;4969287;28;20523;-66
2023/03/15 07:55:51;;;;;;;1.35;1.35;;;5.00;99.90;;;4.89;nan;100770.13;4987676;28;20281;-66
2023/03/15 07:58:17;;;;;;;0.73;0.73;;;5.00;99.90;;;4.87;nan;100775.38;4989657;28;20211;-66
2023/03/15 08:00:46;;;;;;;0.52;0.52;;;5.00;99.90;;;4.88;nan;100771.88;4990541;28;20239;-66
2023/03/15 08:03:13;;;;;;;1.15;1.10;;;5.00;99.90;;;4.87;nan;100777.97;4985170;28;20212;-65
2023/03/15 08:05:40;;;;;;;1.48;1.48;;;5.10;99.90;;;4.89;nan;100776.13;4979535;28;20203;-65
2023/03/15 08:08:07;;;;;;;1.65;1.55;;;5.10;99.90;;;4.91;nan;100783.81;4980782;28;20571;-65
2023/03/15 08:10:34;;;;;;;1.60;1.48;;;5.10;99.90;;;4.97;nan;100786.13;4985851;28;20304;-65
2023/03/15 08:13:01;;;;;;;1.25;1.25;;;5.10;99.90;;;4.97;nan;100781.78;4973492;28;20220;-66
2023/03/15 08:15:28;;;;;;;3.35;1.80;;;5.10;99.90;;;5.06;nan;100789.13;4974708;28;20304;-66
2023/03/15 08:17:55;;;;;;;2.83;2.08;;;5.20;99.90;;;5.12;nan;100788.00;4984154;28;20273;-66
2023/03/15 08:20:22;;;;;;;1.00;1.00;;;5.30;99.90;;;5.20;nan;100785.88;4993901;28;20238;-66
2023/03/15 08:22:50;;;;;;;3.53;1.88;;;5.30;99.90;;;5.30;nan;100787.13;4989974;28;20207;-65
2023/03/15 08:25:22;;;;;;;2.17;1.75;;;5.40;99.90;;;5.37;nan;100791.09;4982847;28;20211;-66
2023/03/15 08:27:50;;;;;;;1.40;1.33;;;5.50;99.90;;;5.39;nan;100791.84;4993667;28;20239;-65
2023/03/15 08:30:19;;;;;;;2.25;1.75;;;5.60;99.90;;;5.35;nan;100791.16;4992863;28;20278;-66
2023/03/15 08:32:48;;;;;;;1.70;1.60;;;5.50;99.90;;;5.37;nan;100801.44;4994004;28;20211;-66
2023/03/15 08:35:16;;;;;;;4.20;1.70;;;5.50;99.90;;;5.38;nan;100803.97;4992841;28;20246;-65
2023/03/15 08:37:46;;;;;;;0.73;0.57;;;5.50;99.90;;;5.38;nan;100798.78;4986065;28;20216;-64
2023/03/15 08:40:17;;;;;;;3.33;0.50;;;5.50;99.90;;;5.34;nan;100804.19;4980901;28;20216;-65
2023/03/15 08:42:44;;;;;;;1.10;1.10;;;5.50;99.90;;;5.34;nan;100807.63;4990512;28;20214;-65
2023/03/15 08:45:12;;;;;;;1.98;1.25;;;5.50;99.90;;;5.36;nan;100812.72;4993801;28;20683;-65
2023/03/15 08:47:39;;;;;;;1.17;1.08;;;5.50;99.90;;;5.37;nan;100812.63;5008352;28;20285;-65
2023/03/15 08:50:10;;;;;;;1.48;1.48;;;5.50;99.90;;;5.45;nan;100814.88;4991630;28;20568;-65
2023/03/15 08:52:38;;;;;;;1.40;1.25;;;5.60;99.90;;;5.52;nan;100811.06;5005133;28;20358;-66
2023/03/15 08:55:06;;;;;;;1.30;1.25;;;5.60;99.90;;;5.50;nan;100823.22;4992783;28;20211;-66
2023/03/15 08:57:34;;;;;;;1.80;1.10;;;5.70;99.90;;;5.53;nan;100815.34;4992468;28;20209;-65
2023/03/15 09:00:37;;;;;;;1.40;1.30;;;5.70;99.90;;;5.53;nan;100824.84;4989188;28;20211;-64
2023/03/15 09:02:57;;;;;;;0.55;0.55;;;5.70;99.90;;;5.51;nan;100824.91;4989593;28;20648;-66
2023/03/15 09:05:25;;;;;;;0.50;0.50;;;5.70;99.90;;;5.37;nan;100835.06;4988174;28;20571;-64
2023/03/15 09:07:52;;;;;;;0.90;0.90;;;5.50;99.90;;;5.25;nan;100828.75;4984900;28;20229;-65
2023/03/15 09:10:20;;;;;;;1.15;0.80;;;5.50;99.90;;;5.23;nan;100820.22;4989198;28;20223;-65
2023/03/15 09:12:52;;;;;;;9.23;0.50;;;5.40;99.90;;;5.23;nan;100834.88;5006840;28;20627;-64
2023/03/15 09:15:20;;;;;;;1.90;1.00;;;5.40;99.90;;;5.27;nan;100829.50;4983185;28;21206;-65
2023/03/15 09:17:49;;;;;;;0.40;0.40;;;5.40;99.90;;;5.34;nan;100841.25;4990362;28;20211;-66
2023/03/15 09:20:17;;;;;;;0.87;0.87;;;5.50;99.90;;;5.33;nan;100838.72;4992168;28;20290;-65
2023/03/15 09:22:55;;;;;;;0.68;0.68;;;5.50;99.90;;;5.35;nan;100842.06;4991997;28;20640;-65
2023/03/15 09:25:24;;;;;;;0.57;0.57;;;5.50;99.90;;;5.37;nan;100845.41;4992203;28;20211;-65
2023/03/15 09:27:51;;;;;;;1.20;0.68;;;5.50;99.90;;;5.33;nan;100836.97;4991209;28;20577;-65
2023/03/15 09:30:19;;;;;;;1.20;1.10;;;5.50;99.90;;;5.37;nan;100845.41;4992275;28;20297;-66
2023/03/15 09:32:46;;;;;;;0.80;0.80;;;5.50;99.90;;;5.40;nan;100843.53;4991260;28;20207;-66
2023/03/15 09:35:17;;;;;;;1.35;0.80;;;5.60;99.90;;;5.45;nan;100851.91;4992905;28;20204;-65
2023/03/15 09:37:45;;;;;;;1.65;1.20;;;5.60;99.90;;;5.59;nan;100851.28;4992107;28;20215;-65
2023/03/15 09:40:37;;;;;;;0.80;0.80;;;5.70;99.90;;;5.70;nan;100861.09;4989974;28;20266;-66
2023/03/15 09:43:10;;;;;;;1.63;1.53;;;5.80;99.90;;;5.81;nan;100858.84;4972787;28;20724;-65
2023/03/15 09:46:13;;;;;;;1.25;1.13;;;6.00;99.90;;;5.99;nan;100861.38;5007150;28;20668;-65
2023/03/15 09:49:11;;;;;;;1.20;1.10;;;6.10;99.90;;;6.05;nan;100868.84;4984563;28;20207;-65
2023/03/15 09:51:54;;;;;;;0.90;0.90;;;6.20;99.90;;;6.16;nan;100869.16;4991042;28;20253;-65
2023/03/15 09:54:31;;;;;;;0.90;0.70;;;6.30;99.90;;;6.22;nan;100881.81;4971461;28;20634;-64
2023/03/15 09:57:22;;;;;;;4.80;0.87;;;6.40;99.90;;;6.24;nan;100879.97;4991135;28;20487;-64
2023/03/15 09:59:53;;;;;;;0.60;0.60;;;6.40;99.90;;;6.26;nan;100885.09;4993630;28;20633;-66
2023/03/15 10:02:27;;;;;;;1.13;1.13;;;6.40;99.90;;;6.28;nan;100884.09;4992698;28;20650;-65
2023/03/15 10:05:05;;;;;;;0.82;0.80;;;6.40;99.90;;;6.35;nan;100884.63;4989820;28;20613;-65
2023/03/15 10:07:34;;;;;;;0.90;0.90;;;6.50;99.90;;;6.44;nan;100885.91;4990927;28;20231;-64
2023/03/15 10:10:03;;;;;;;2.03;0.87;;;6.50;99.90;;;6.54;nan;100885.34;4970649;28;21000;-63
2023/03/15 10:12:40;;;;;;;1.10;1.10;;;6.70;99.90;;;6.68;nan;100884.66;4989300;28;20632;-67
2023/03/15 10:15:54;;;;;;;0.80;0.80;;;6.80;99.90;;;6.82;nan;100882.16;4972069;28;21057;-65
2023/03/15 10:18:45;;;;;;;1.33;1.00;;;6.90;99.90;;;6.98;nan;100886.47;4987282;28;21191;-66
2023/03/15 10:21:36;;;;;;;1.03;1.03;;;7.10;99.90;;;7.20;nan;100887.94;4985273;28;21252;-66
2023/03/15 10:24:25;;;;;;;1.90;1.00;;;7.30;99.90;;;7.35;nan;100887.94;4988794;28;21180;-65
2023/03/15 10:26:52;;;;;;;0.70;0.70;;;7.40;99.90;;;7.40;nan;100888.53;4979659;28;20663;-65
2023/03/15 10:29:24;;;;;;;1.17;1.07;;;7.50;99.90;;;7.52;nan;100895.63;4984609;28;21268;-65
2023/03/15 10:31:53;;;;;;;2.47;0.93;;;7.60;99.90;;;7.61;nan;100895.13;4988879;28;20663;-67
2023/03/15 10:34:21;;;;;;;0.90;0.87;;;7.70;99.90;;;7.54;nan;100893.78;4998661;28;21256;-67
2023/03/15 10:36:53;;;;;;;1.63;1.30;;;7.70;99.90;;;7.55;nan;100892.88;4978755;28;20641;-65
2023/03/15 10:39:23;;;;;;;2.73;0.77;;;7.60;99.90;;;7.56;nan;100886.75;4988742;28;21062;-66
2023/03/15 10:41:51;;;;;;;1.40;1.30;;;7.70;99.90;;;7.57;nan;100893.63;4985810;28;20655;-66
2023/03/15 10:44:24;;;;;;;2.40;2.20;;;7.70;99.90;;;7.83;nan;100885.22;5004274;28;20639;-63
2023/03/15 10:47:18;;;;;;;9.60;5.60;;;7.90;99.90;;;8.05;nan;100884.00;4990048;28;21048;-64
2023/03/15 10:49:58;;;;;;;10.23;6.30;;;8.20;99.90;;;8.12;nan;100880.94;4980152;28;20642;-65